Time,TemperatureF,DewpointF,PressureIn,WindDirection,WindDirectionDegrees,WindSpeedMPH,WindSpeedGustMPH,Humidity,HourlyPrecipIn,Conditions,Clouds,dailyrainin,SoftwareType,DateUTC
2013-11-05 00:03:00,45.0,45.0,-100.00,SSW,200,6.0,8.0,99,-99.99,,,-99.99,,2013-11-05 06:03:00,
2013-11-05 00:42:00,45.0,44.0,-100.00,SSW,200,2.0,4.0,97,-99.99,,,-99.99,,2013-11-05 06:42:00,
2013-11-05 00:52:00,45.0,44.0,-100.00,SSW,200,2.0,4.0,97,-99.99,,,-99.99,,2013-11-05 06:52:00,
2013-11-05 01:02:00,45.0,44.0,-100.00,SSW,200,2.0,4.0,97,-99.99,,,-99.99,,2013-11-05 07:02:00,
2013-11-05 01:43:00,44.0,43.0,-100.00,SSW,200,0.0,2.0,97,-99.99,,,-99.99,,2013-11-05 07:43:00,
2013-11-05 01:52:00,44.0,43.0,-100.00,SSW,200,0.0,2.0,97,-99.99,,,-99.99,,2013-11-05 07:52:00,
2013-11-05 02:02:00,44.0,43.0,-100.00,SSW,200,0.0,2.0,97,-99.99,,,-99.99,,2013-11-05 08:02:00,
2013-11-05 02:42:00,40.0,39.0,-100.00,SSW,200,0.0,1.0,98,-99.99,,,-99.99,,2013-11-05 08:42:00,
2013-11-05 02:52:00,40.0,39.0,-100.00,SSW,200,0.0,1.0,98,-99.99,,,-99.99,,2013-11-05 08:52:00,
2013-11-05 03:02:00,40.0,39.0,-100.00,SSW,200,0.0,1.0,98,-99.99,,,-99.99,,2013-11-05 09:02:00,
2013-11-05 03:43:00,37.0,36.0,-100.00,SSW,200,0.0,2.0,99,-99.99,,,-99.99,,2013-11-05 09:43:00,
2013-11-05 03:53:00,37.0,36.0,-100.00,SSW,200,0.0,2.0,99,-99.99,,,-99.99,,2013-11-05 09:53:00,
2013-11-05 04:02:00,37.0,36.0,-100.00,SSW,200,0.0,2.0,99,-99.99,,,-99.99,,2013-11-05 10:02:00,
2013-11-05 04:43:00,34.0,34.0,-100.00,SSW,200,1.0,2.0,99,-99.99,,,-99.99,,2013-11-05 10:43:00,
2013-11-05 04:53:00,34.0,34.0,-100.00,SSW,200,1.0,2.0,99,-99.99,,,-99.99,,2013-11-05 10:53:00,
2013-11-05 05:02:00,34.0,34.0,-100.00,SSW,200,1.0,2.0,99,-99.99,,,-99.99,,2013-11-05 11:02:00,
2013-11-05 05:42:00,32.0,31.0,-100.00,SSW,200,0.0,0.0,99,-99.99,,,-99.99,,2013-11-05 11:42:00,
2013-11-05 05:52:00,32.0,31.0,-100.00,SSW,200,0.0,0.0,99,-99.99,,,-99.99,,2013-11-05 11:52:00,
2013-11-05 06:02:00,32.0,31.0,-100.00,SSW,200,0.0,0.0,99,-99.99,,,-99.99,,2013-11-05 12:02:00,
2013-11-05 07:42:00,31.0,31.0,-100.00,SSW,200,1.0,2.0,99,-99.99,,,-99.99,,2013-11-05 13:42:00,
2013-11-05 07:52:00,31.0,31.0,-100.00,SSW,200,1.0,2.0,99,-99.99,,,-99.99,,2013-11-05 13:52:00,
2013-11-05 08:02:00,31.0,31.0,-100.00,SSW,200,1.0,2.0,99,-99.99,,,-99.99,,2013-11-05 14:02:00,
2013-11-05 08:42:00,33.0,32.0,-100.00,SSW,200,0.0,2.0,99,-99.99,,,-99.99,,2013-11-05 14:42:00,
2013-11-05 08:52:00,33.0,32.0,-100.00,SSW,200,0.0,2.0,99,-99.99,,,-99.99,,2013-11-05 14:52:00,
2013-11-05 09:02:00,33.0,32.0,-100.00,SSW,200,0.0,2.0,99,-99.99,,,-99.99,,2013-11-05 15:02:00,
2013-11-05 09:43:00,37.0,37.0,-100.00,SSW,200,2.0,4.0,99,-99.99,,,-99.99,,2013-11-05 15:43:00,
2013-11-05 09:53:00,37.0,37.0,-100.00,SSW,200,2.0,4.0,99,-99.99,,,-99.99,,2013-11-05 15:53:00,
2013-11-05 10:03:00,37.0,37.0,-100.00,SSW,200,2.0,4.0,99,-99.99,,,-99.99,,2013-11-05 16:03:00,
2013-11-05 10:43:00,43.0,42.0,-100.00,SSW,200,2.0,3.0,99,-99.99,,,-99.99,,2013-11-05 16:43:00,
2013-11-05 10:53:00,43.0,42.0,-100.00,SSW,200,2.0,3.0,99,-99.99,,,-99.99,,2013-11-05 16:53:00,
2013-11-05 11:02:00,43.0,42.0,-100.00,SSW,200,2.0,3.0,99,-99.99,,,-99.99,,2013-11-05 17:02:00,
2013-11-05 11:42:00,46.0,45.0,-100.00,SSW,200,4.0,7.0,97,-99.99,,,-99.99,,2013-11-05 17:42:00,
2013-11-05 11:52:00,46.0,45.0,-100.00,SSW,200,4.0,7.0,97,-99.99,,,-99.99,,2013-11-05 17:52:00,
2013-11-05 12:02:00,46.0,45.0,-100.00,SSW,200,4.0,7.0,97,-99.99,,,-99.99,,2013-11-05 18:02:00,
2013-11-05 13:42:00,47.0,43.0,-100.00,SSW,200,1.0,4.0,87,-99.99,,,-99.99,,2013-11-05 19:42:00,
2013-11-05 13:52:00,47.0,43.0,-100.00,SSW,200,1.0,4.0,87,-99.99,,,-99.99,,2013-11-05 19:52:00,
2013-11-05 14:02:00,47.0,43.0,-100.00,SSW,200,1.0,4.0,87,-99.99,,,-99.99,,2013-11-05 20:02:00,
2013-11-05 14:43:00,46.0,44.0,-100.00,SSW,200,2.0,6.0,92,-99.99,,,-99.99,,2013-11-05 20:43:00,
2013-11-05 14:53:00,46.0,44.0,-100.00,SSW,200,2.0,6.0,92,-99.99,,,-99.99,,2013-11-05 20:53:00,
2013-11-05 15:02:00,46.0,44.0,-100.00,SSW,200,2.0,6.0,92,-99.99,,,-99.99,,2013-11-05 21:02:00,
2013-11-05 15:44:00,45.0,44.0,-100.00,SSW,200,3.0,7.0,97,-99.99,,,-99.99,,2013-11-05 21:44:00,
2013-11-05 15:54:00,45.0,44.0,-100.00,SSW,200,3.0,7.0,97,-99.99,,,-99.99,,2013-11-05 21:54:00,
2013-11-05 16:04:00,45.0,44.0,-100.00,SSW,200,3.0,7.0,97,-99.99,,,-99.99,,2013-11-05 22:04:00,
2013-11-05 16:44:00,44.0,44.0,-100.00,SSW,200,4.0,9.0,99,-99.99,,,-99.99,,2013-11-05 22:44:00,
2013-11-05 16:53:00,44.0,44.0,-100.00,SSW,200,4.0,9.0,99,-99.99,,,-99.99,,2013-11-05 22:53:00,
2013-11-05 17:03:00,44.0,44.0,-100.00,SSW,200,4.0,9.0,99,-99.99,,,-99.99,,2013-11-05 23:03:00,
2013-11-05 17:42:00,44.0,44.0,-100.00,SSW,200,4.0,7.0,99,-99.99,,,-99.99,,2013-11-05 23:42:00,
2013-11-05 17:53:00,44.0,44.0,-100.00,SSW,200,4.0,7.0,99,-99.99,,,-99.99,,2013-11-05 23:53:00,
2013-11-05 18:03:00,44.0,44.0,-100.00,SSW,200,4.0,7.0,99,-99.99,,,-99.99,,2013-11-06 00:03:00,
2013-11-05 18:42:00,45.0,44.0,-100.00,SSW,200,7.0,13.0,99,-99.99,,,-99.99,,2013-11-06 00:42:00,
2013-11-05 18:52:00,45.0,44.0,-100.00,SSW,200,7.0,13.0,99,-99.99,,,-99.99,,2013-11-06 00:52:00,
2013-11-05 19:02:00,45.0,44.0,-100.00,SSW,200,7.0,13.0,99,-99.99,,,-99.99,,2013-11-06 01:02:00,
2013-11-05 19:42:00,44.0,44.0,-100.00,SSW,200,3.0,7.0,99,-99.99,,,-99.99,,2013-11-06 01:42:00,
2013-11-05 19:52:00,44.0,44.0,-100.00,SSW,200,3.0,7.0,99,-99.99,,,-99.99,,2013-11-06 01:52:00,
2013-11-05 20:02:00,44.0,44.0,-100.00,SSW,200,3.0,7.0,99,-99.99,,,-99.99,,2013-11-06 02:02:00,
2013-11-05 20:42:00,43.0,43.0,-100.00,SSW,200,2.0,8.0,99,-99.99,,,-99.99,,2013-11-06 02:42:00,
2013-11-05 20:52:00,43.0,43.0,-100.00,SSW,200,2.0,8.0,99,-99.99,,,-99.99,,2013-11-06 02:52:00,
2013-11-05 21:02:00,43.0,43.0,-100.00,SSW,200,2.0,8.0,99,-99.99,,,-99.99,,2013-11-06 03:02:00,
2013-11-05 21:44:00,43.0,43.0,-100.00,SSW,200,4.0,9.0,99,-99.99,,,-99.99,,2013-11-06 03:44:00,
2013-11-05 21:55:00,43.0,43.0,-100.00,SSW,200,4.0,9.0,99,-99.99,,,-99.99,,2013-11-06 03:55:00,
2013-11-05 22:05:00,43.0,43.0,-100.00,SSW,200,4.0,9.0,99,-99.99,,,-99.99,,2013-11-06 04:05:00,
2013-11-05 22:43:00,43.0,43.0,-100.00,SSW,200,1.0,9.0,99,-99.99,,,-99.99,,2013-11-06 04:43:00,
2013-11-05 22:53:00,43.0,43.0,-100.00,SSW,200,1.0,9.0,99,-99.99,,,-99.99,,2013-11-06 04:53:00,
2013-11-05 23:03:00,43.0,43.0,-100.00,SSW,200,1.0,9.0,99,-99.99,,,-99.99,,2013-11-06 05:03:00,
2013-11-05 23:44:00,42.0,42.0,-100.00,SSW,200,4.0,12.0,99,-99.99,,,-99.99,,2013-11-06 05:44:00,
2013-11-05 23:53:00,42.0,42.0,-100.00,SSW,200,4.0,12.0,99,-99.99,,,-99.99,,2013-11-06 05:53:00,